Time;durP1;ratioP1;P1;durP2;ratioP2;P2;SDS_P1;SDS_P2;PMS_P1;PMS_P2;Temp;Humidity;BMP_temperature;BMP_pressure;BME280_temperature;BME280_humidity;BME280_pressure;Samples;Min_cycle;Max_cycle;Signal;HPM_P1;HPM_P2
2023/11/23 04:06:53;;;;;;;0.40;0.40;;;0.90;99.90;;;;;;5143302;23;20713;-65
2023/11/23 04:09:19;;;;;;;0.40;0.40;;;0.90;99.90;;;;;;4999200;28;20278;-65
2023/11/23 04:11:44;;;;;;;0.40;0.40;;;0.90;99.90;;;;;;5000712;28;20539;-66
2023/11/23 04:14:10;;;;;;;0.40;0.40;;;0.90;99.90;;;;;;4996445;28;20507;-65
2023/11/23 04:16:38;;;;;;;0.30;0.30;;;1.00;99.90;;;;;;4980347;28;20223;-65
2023/11/23 04:19:04;;;;;;;0.30;0.30;;;1.00;99.90;;;;;;4979119;28;20226;-65
2023/11/23 04:21:29;;;;;;;0.50;0.50;;;1.00;99.90;;;;;;4994853;28;20690;-65
2023/11/23 04:23:55;;;;;;;0.40;0.40;;;1.00;99.90;;;;;;4996514;28;20167;-65
2023/11/23 04:26:21;;;;;;;0.50;0.50;;;1.00;99.90;;;;;;4996384;28;20245;-65
2023/11/23 04:28:48;;;;;;;0.40;0.40;;;1.00;99.90;;;;;;4996525;28;20554;-66
2023/11/23 04:31:13;;;;;;;0.40;0.40;;;0.90;99.90;;;;;;4996447;28;20172;-66
2023/11/23 04:33:39;;;;;;;0.47;0.47;;;0.90;99.90;;;;;;4988960;28;20187;-65
2023/11/23 04:36:05;;;;;;;0.30;0.30;;;0.90;99.90;;;;;;4976156;28;20202;-65
2023/11/23 04:38:30;;;;;;;0.50;0.50;;;0.90;99.90;;;;;;4976868;28;20259;-65
2023/11/23 04:40:56;;;;;;;0.30;0.30;;;0.90;99.90;;;;;;4976833;28;20164;-65
2023/11/23 04:43:21;;;;;;;0.40;0.40;;;1.00;99.90;;;;;;4976837;28;20204;-66
2023/11/23 04:45:47;;;;;;;0.40;0.40;;;1.00;99.90;;;;;;4976335;28;20188;-65
2023/11/23 04:48:13;;;;;;;0.30;0.30;;;1.00;99.90;;;;;;4980429;28;20213;-66
2023/11/23 04:50:39;;;;;;;0.30;0.30;;;1.00;99.90;;;;;;4983980;28;20190;-65
2023/11/23 04:53:05;;;;;;;0.50;0.50;;;1.00;99.90;;;;;;4996578;28;20575;-66
2023/11/23 04:55:31;;;;;;;0.40;0.40;;;1.10;99.90;;;;;;4995790;28;20199;-65
2023/11/23 04:57:57;;;;;;;0.75;0.75;;;1.10;99.90;;;;;;4996044;28;20659;-66
2023/11/23 05:00:24;;;;;;;0.40;0.40;;;1.10;99.90;;;;;;4996129;28;20187;-65
2023/11/23 05:02:54;;;;;;;0.30;0.30;;;1.10;99.90;;;;;;4991836;28;20168;-66
2023/11/23 05:05:20;;;;;;;0.40;0.40;;;1.10;99.90;;;;;;4975920;28;20191;-65
2023/11/23 05:07:45;;;;;;;0.52;0.52;;;1.10;99.90;;;;;;4976132;28;20191;-65
2023/11/23 05:10:11;;;;;;;0.40;0.40;;;1.10;99.90;;;;;;4976455;28;20176;-65
2023/11/23 05:12:37;;;;;;;0.40;0.40;;;1.10;99.90;;;;;;4986477;28;20221;-65
2023/11/23 05:15:03;;;;;;;0.30;0.30;;;1.10;99.90;;;;;;4995154;28;20191;-65
2023/11/23 05:17:30;;;;;;;0.40;0.40;;;1.10;99.90;;;;;;4994586;28;20997;-65
2023/11/23 05:19:56;;;;;;;0.35;0.35;;;1.00;99.90;;;;;;4995421;28;20183;-65
2023/11/23 05:22:22;;;;;;;0.40;0.40;;;1.10;99.90;;;;;;4995524;28;20179;-65
2023/11/23 05:24:48;;;;;;;0.60;0.60;;;1.00;99.90;;;;;;4995008;28;20497;-65
2023/11/23 05:27:13;;;;;;;0.43;0.43;;;1.00;99.90;;;;;;4995377;28;20255;-65
2023/11/23 05:29:39;;;;;;;0.50;0.50;;;1.00;99.90;;;;;;4995509;28;20167;-66
2023/11/23 05:32:05;;;;;;;0.30;0.30;;;1.00;99.90;;;;;;4992584;28;20602;-65
2023/11/23 05:34:31;;;;;;;0.40;0.40;;;1.00;99.90;;;;;;4975591;28;20172;-65
2023/11/23 05:36:56;;;;;;;0.40;0.40;;;1.00;99.90;;;;;;4958201;28;20564;-65
2023/11/23 05:39:22;;;;;;;0.30;0.30;;;1.00;99.90;;;;;;4975682;28;20172;-65
2023/11/23 05:41:47;;;;;;;0.50;0.50;;;1.00;99.90;;;;;;4975573;28;20524;-65
2023/11/23 05:44:13;;;;;;;0.40;0.40;;;1.00;99.90;;;;;;4975280;28;20663;-65
2023/11/23 05:46:38;;;;;;;0.40;0.40;;;1.00;99.90;;;;;;4976554;28;20287;-65
2023/11/23 05:49:05;;;;;;;0.30;0.30;;;1.00;99.90;;;;;;4975445;28;20172;-65
2023/11/23 05:51:31;;;;;;;0.43;0.43;;;1.00;99.90;;;;;;4986033;28;20639;-67
2023/11/23 05:53:57;;;;;;;0.40;0.40;;;1.00;99.90;;;;;;4993377;28;20183;-66
2023/11/23 05:56:22;;;;;;;0.40;0.40;;;1.00;99.90;;;;;;4957938;28;20235;-67
2023/11/23 05:58:48;;;;;;;0.40;0.40;;;0.90;99.90;;;;;;4975578;28;20450;-66
2023/11/23 06:01:14;;;;;;;0.40;0.40;;;0.90;99.90;;;;;;4975389;28;20179;-67
2023/11/23 06:03:42;;;;;;;0.30;0.30;;;0.90;99.90;;;;;;4987588;28;20322;-67
2023/11/23 06:06:20;;;;;;;0.63;0.63;;;0.90;99.90;;;;;;4976940;28;20569;-66
2023/11/23 06:08:50;;;;;;;0.40;0.40;;;0.90;99.90;;;;;;4975230;28;20662;-65
2023/11/23 06:11:16;;;;;;;0.50;0.50;;;0.80;99.90;;;;;;4981225;28;20171;-67
2023/11/23 06:13:45;;;;;;;0.40;0.40;;;0.80;99.90;;;;;;4992559;28;20257;-67
2023/11/23 06:16:12;;;;;;;0.43;0.43;;;0.80;99.90;;;;;;5013601;28;20266;-66
2023/11/23 06:18:38;;;;;;;0.30;0.30;;;0.80;99.90;;;;;;4983181;28;20180;-63
2023/11/23 06:21:04;;;;;;;0.47;0.47;;;0.80;99.90;;;;;;4977305;28;20172;-64
2023/11/23 06:23:30;;;;;;;0.32;0.32;;;0.80;99.90;;;;;;4992232;28;20270;-64
2023/11/23 06:25:56;;;;;;;0.40;0.40;;;0.80;99.90;;;;;;4993885;28;20195;-65
2023/11/23 06:28:23;;;;;;;0.40;0.40;;;0.80;99.90;;;;;;4994349;28;20414;-66
2023/11/23 06:30:49;;;;;;;0.50;0.50;;;0.80;99.90;;;;;;4984646;28;20656;-66
2023/11/23 06:33:15;;;;;;;0.40;0.40;;;0.80;99.90;;;;;;4974203;28;20351;-67
2023/11/23 06:35:40;;;;;;;0.40;0.40;;;0.80;99.90;;;;;;4982909;28;20438;-69
2023/11/23 06:38:06;;;;;;;0.47;0.47;;;0.80;99.90;;;;;;4994218;28;20215;-67
2023/11/23 06:40:34;;;;;;;0.40;0.40;;;0.90;99.90;;;;;;4994230;28;20535;-66
2023/11/23 06:43:02;;;;;;;0.40;0.40;;;0.90;99.90;;;;;;4994046;28;20168;-67
2023/11/23 06:45:28;;;;;;;0.43;0.43;;;0.90;99.90;;;;;;4992776;28;20613;-68
2023/11/23 06:47:54;;;;;;;0.50;0.50;;;1.00;99.90;;;;;;4984144;28;20179;-67
2023/11/23 06:50:20;;;;;;;0.40;0.40;;;1.00;99.90;;;;;;5003643;28;20420;-68
2023/11/23 06:52:46;;;;;;;0.63;0.63;;;1.00;99.90;;;;;;5013500;28;20421;-68
2023/11/23 06:55:14;;;;;;;0.40;0.40;;;1.00;99.90;;;;;;5004616;28;20226;-67
2023/11/23 06:57:42;;;;;;;0.40;0.40;;;1.10;99.90;;;;;;4994919;28;20570;-68
2023/11/23 07:00:16;;;;;;;0.30;0.30;;;1.10;99.90;;;;;;4985345;28;20644;-69
2023/11/23 07:02:42;;;;;;;0.40;0.40;;;1.10;99.90;;;;;;4974330;28;20167;-67
2023/11/23 07:05:09;;;;;;;0.50;0.50;;;1.20;99.90;;;;;;4973920;28;20207;-68
2023/11/23 07:07:35;;;;;;;0.40;0.40;;;1.20;99.90;;;;;;4974150;28;20191;-65
2023/11/23 07:10:02;;;;;;;0.30;0.30;;;1.20;99.90;;;;;;4987747;28;20618;-66
2023/11/23 07:12:27;;;;;;;0.30;0.30;;;1.40;99.90;;;;;;4992373;28;20643;-67
2023/11/23 07:14:53;;;;;;;0.40;0.40;;;1.50;99.90;;;;;;4984482;28;20195;-66
2023/11/23 07:17:19;;;;;;;0.30;0.30;;;1.70;99.90;;;;;;4999138;28;20685;-67
2023/11/23 07:19:44;;;;;;;0.40;0.40;;;2.10;99.90;;;;;;5013370;28;20175;-67
2023/11/23 07:22:10;;;;;;;0.40;0.40;;;2.50;99.90;;;;;;5000213;28;20643;-67
2023/11/23 07:24:35;;;;;;;0.33;0.33;;;2.90;99.90;;;;;;4975506;28;20177;-67
2023/11/23 07:27:02;;;;;;;0.40;0.40;;;3.30;99.90;;;;;;4993514;28;20257;-67
2023/11/23 07:29:28;;;;;;;0.30;0.30;;;3.70;99.90;;;;;;4993494;28;20173;-68
2023/11/23 07:31:53;;;;;;;0.30;0.30;;;4.10;99.90;;;;;;4994284;28;20186;-67
2023/11/23 07:34:19;;;;;;;0.50;0.50;;;4.40;99.90;;;;;;4975475;28;20181;-68
2023/11/23 07:36:45;;;;;;;0.40;0.40;;;4.70;99.90;;;;;;4993328;28;20209;-67
2023/11/23 07:39:11;;;;;;;0.30;0.30;;;4.90;99.90;;;;;;4980261;28;20171;-66
2023/11/23 07:41:36;;;;;;;0.37;0.37;;;5.10;99.90;;;;;;4996621;28;20531;-68
2023/11/23 07:44:02;;;;;;;0.40;0.40;;;5.10;99.90;;;;;;4981349;28;20179;-67
2023/11/23 07:46:50;;;;;;;0.37;0.37;;;5.10;99.90;;;;;;4998778;28;20195;-74
2023/11/23 07:49:57;;;;;;;0.30;0.30;;;5.20;99.90;;;;;;5001571;28;20384;-74
2023/11/23 07:52:23;;;;;;;0.50;0.50;;;5.20;99.90;;;;;;5016718;28;20265;-66
2023/11/23 07:54:49;;;;;;;0.40;0.40;;;5.30;99.90;;;;;;5001750;28;20190;-71
2023/11/23 07:57:15;;;;;;;0.35;0.35;;;5.30;99.90;;;;;;4996826;28;20569;-66
2023/11/23 07:59:43;;;;;;;0.33;0.33;;;5.40;99.90;;;;;;4996876;28;20178;-67
2023/11/23 08:02:09;;;;;;;0.32;0.32;;;5.40;99.90;;;;;;4995809;28;20395;-66
2023/11/23 08:04:35;;;;;;;1.40;0.88;;;5.60;99.90;;;;;;4996315;28;20160;-65
2023/11/23 08:07:00;;;;;;;0.30;0.30;;;5.80;99.90;;;;;;5010744;28;20197;-67
2023/11/23 08:09:27;;;;;;;0.80;0.80;;;6.20;99.90;;;;;;5006597;28;20423;-66
2023/11/23 08:11:57;;;;;;;0.30;0.30;;;6.80;99.90;;;;;;4997588;28;20175;-67
2023/11/23 08:14:22;;;;;;;0.50;0.50;;;7.50;99.90;;;;;;4996121;28;20173;-68
2023/11/23 08:16:48;;;;;;;0.30;0.30;;;8.30;99.90;;;;;;5009850;28;20564;-67
2023/11/23 08:19:14;;;;;;;0.30;0.30;;;9.10;99.90;;;;;;4999577;28;20278;-68
2023/11/23 08:21:40;;;;;;;0.50;0.50;;;9.90;99.90;;;;;;4996357;28;20171;-66
2023/11/23 08:24:07;;;;;;;0.40;0.40;;;10.50;99.90;;;;;;4993661;28;20172;-68
2023/11/23 08:26:32;;;;;;;0.30;0.20;;;10.80;98.20;;;;;;5006945;28;20475;-68
2023/11/23 08:28:58;;;;;;;0.30;0.30;;;11.00;97.00;;;;;;4996309;28;20386;-68
2023/11/23 08:31:28;;;;;;;1.43;0.70;;;11.20;96.00;;;;;;4995797;28;20181;-67
2023/11/23 08:33:55;;;;;;;0.30;0.30;;;11.10;96.40;;;;;;4996027;28;20595;-68
2023/11/23 08:36:21;;;;;;;0.40;0.40;;;11.20;96.40;;;;;;4975134;28;20499;-68
2023/11/23 08:38:47;;;;;;;0.30;0.30;;;11.20;96.30;;;;;;4992497;28;20416;-66
2023/11/23 08:41:12;;;;;;;0.53;0.40;;;11.10;96.10;;;;;;4988405;28;20782;-65
2023/11/23 08:43:38;;;;;;;0.30;0.30;;;11.10;96.10;;;;;;4996106;28;20529;-67
2023/11/23 08:46:04;;;;;;;0.30;0.30;;;11.00;96.20;;;;;;4993329;28;20198;-66
2023/11/23 08:48:30;;;;;;;0.30;0.30;;;11.00;96.10;;;;;;4998354;28;20645;-68
2023/11/23 08:50:57;;;;;;;0.30;0.30;;;10.70;95.80;;;;;;4991533;28;20465;-67
2023/11/23 08:53:24;;;;;;;0.60;0.60;;;10.20;96.60;;;;;;4986400;28;20199;-67
2023/11/23 08:55:50;;;;;;;0.30;0.20;;;9.60;98.00;;;;;;5001094;28;20470;-68
2023/11/23 08:58:16;;;;;;;0.30;0.30;;;9.10;99.10;;;;;;4976350;28;20458;-67
2023/11/23 09:00:42;;;;;;;0.73;0.53;;;8.60;99.90;;;;;;4984947;28;20815;-65
2023/11/23 09:03:09;;;;;;;2.67;1.90;;;8.20;99.90;;;;;;4996838;28;20704;-69
2023/11/23 09:05:34;;;;;;;0.30;0.30;;;7.90;99.90;;;;;;5003394;28;20190;-66
2023/11/23 09:08:06;;;;;;;0.30;0.30;;;7.60;99.90;;;;;;4997088;28;20560;-67
2023/11/23 09:10:32;;;;;;;0.30;0.30;;;7.40;99.90;;;;;;5002021;28;20202;-66
2023/11/23 09:12:58;;;;;;;0.60;0.60;;;7.40;99.90;;;;;;4987474;28;20305;-67
2023/11/23 09:15:24;;;;;;;0.40;0.40;;;7.20;99.90;;;;;;4996351;28;20665;-65
2023/11/23 09:17:51;;;;;;;0.60;0.60;;;7.00;99.90;;;;;;5004098;28;20489;-65
2023/11/23 09:20:16;;;;;;;0.30;0.30;;;6.80;99.90;;;;;;4995619;28;20628;-67
2023/11/23 09:22:42;;;;;;;0.30;0.30;;;6.80;99.90;;;;;;4994734;28;20167;-69
2023/11/23 09:25:08;;;;;;;0.30;0.30;;;6.80;99.90;;;;;;4975594;28;20719;-70
2023/11/23 09:27:36;;;;;;;0.30;0.30;;;6.70;99.90;;;;;;4993737;28;20627;-71
2023/11/23 09:30:05;;;;;;;0.30;0.30;;;6.80;99.90;;;;;;4996836;28;20199;-71
2023/11/23 09:32:38;;;;;;;0.30;0.30;;;6.70;99.90;;;;;;4995248;28;20251;-72
2023/11/23 09:35:10;;;;;;;0.30;0.30;;;6.80;99.90;;;;;;4997752;28;20744;-67
2023/11/23 09:37:36;;;;;;;0.30;0.30;;;6.90;99.90;;;;;;4992646;28;20270;-68
2023/11/23 09:40:05;;;;;;;0.50;0.50;;;6.90;99.90;;;;;;4975887;28;20192;-68
2023/11/23 09:42:35;;;;;;;0.30;0.30;;;6.90;99.90;;;;;;4979601;28;20223;-69
2023/11/23 09:45:02;;;;;;;0.30;0.30;;;6.80;99.90;;;;;;4999317;28;20183;-69
2023/11/23 09:47:32;;;;;;;0.30;0.30;;;6.90;99.90;;;;;;4994890;28;20531;-69
2023/11/23 09:50:01;;;;;;;0.32;0.32;;;7.00;99.90;;;;;;5005486;28;20178;-68
2023/11/23 09:52:31;;;;;;;0.40;0.40;;;7.00;99.90;;;;;;4993644;28;20725;-69
2023/11/23 09:54:57;;;;;;;0.30;0.30;;;7.10;99.90;;;;;;4996743;28;20212;-71
2023/11/23 09:57:26;;;;;;;0.32;0.32;;;7.10;99.90;;;;;;4994749;28;20210;-69
2023/11/23 09:59:51;;;;;;;0.30;0.30;;;7.20;99.90;;;;;;5013359;28;20174;-71
2023/11/23 10:02:21;;;;;;;0.83;0.83;;;7.20;99.90;;;;;;5014723;28;20228;-69
2023/11/23 10:04:50;;;;;;;0.38;0.38;;;7.20;99.90;;;;;;5011703;28;20301;-70
2023/11/23 10:07:20;;;;;;;0.30;0.30;;;7.30;99.90;;;;;;4979675;28;20252;-69
2023/11/23 10:09:49;;;;;;;0.43;0.43;;;7.30;99.90;;;;;;5012411;28;20175;-71
2023/11/23 10:12:14;;;;;;;0.30;0.30;;;7.40;99.90;;;;;;4996598;28;20583;-68
2023/11/23 10:14:40;;;;;;;0.37;0.37;;;7.40;99.90;;;;;;4998704;28;20261;-70
2023/11/23 10:17:09;;;;;;;0.30;0.30;;;7.40;99.90;;;;;;5013525;28;20202;-69
2023/11/23 10:19:34;;;;;;;0.30;0.30;;;7.50;99.90;;;;;;5006039;28;20175;-68
2023/11/23 10:22:03;;;;;;;0.30;0.30;;;7.50;99.90;;;;;;5002291;28;20740;-68
2023/11/23 10:24:29;;;;;;;0.40;0.40;;;7.50;99.90;;;;;;4995365;28;20641;-70
2023/11/23 10:26:55;;;;;;;0.30;0.30;;;7.50;99.90;;;;;;4994249;28;20213;-69
2023/11/23 10:29:32;;;;;;;0.33;0.33;;;7.60;99.90;;;;;;4992388;28;20178;-70
2023/11/23 10:31:59;;;;;;;0.30;0.30;;;7.70;99.90;;;;;;4998893;28;20413;-70
2023/11/23 10:34:28;;;;;;;0.30;0.30;;;7.70;99.90;;;;;;4994071;28;20177;-68
2023/11/23 10:36:56;;;;;;;0.30;0.30;;;7.80;99.90;;;;;;4993979;28;20261;-68
2023/11/23 10:39:22;;;;;;;0.40;0.40;;;7.90;99.90;;;;;;4983815;28;20194;-70
2023/11/23 10:41:49;;;;;;;0.30;0.30;;;7.90;99.90;;;;;;5013703;28;20214;-68
2023/11/23 10:44:15;;;;;;;0.30;0.30;;;8.00;99.90;;;;;;4999547;28;20186;-70
2023/11/23 10:46:43;;;;;;;0.30;0.30;;;8.00;99.90;;;;;;5008319;28;20222;-71
2023/11/23 10:49:08;;;;;;;0.40;0.40;;;8.10;99.90;;;;;;5008828;28;20254;-68
2023/11/23 10:51:35;;;;;;;0.30;0.30;;;8.10;99.90;;;;;;4995373;28;20182;-71
2023/11/23 10:54:01;;;;;;;0.30;0.30;;;8.10;99.90;;;;;;4995030;28;20551;-69
2023/11/23 10:56:31;;;;;;;0.57;0.57;;;8.10;99.90;;;;;;4993617;28;20201;-70
2023/11/23 10:59:02;;;;;;;0.30;0.30;;;8.20;99.90;;;;;;4993966;28;20167;-69
2023/11/23 11:01:30;;;;;;;0.35;0.35;;;8.20;99.90;;;;;;4976471;28;20199;-70
2023/11/23 11:03:57;;;;;;;0.40;0.40;;;8.20;99.90;;;;;;4993323;28;20531;-69
2023/11/23 11:06:23;;;;;;;0.30;0.30;;;8.20;99.90;;;;;;4993475;28;20687;-70
2023/11/23 11:08:49;;;;;;;0.30;0.30;;;8.20;99.90;;;;;;4994748;28;20175;-69
2023/11/23 11:11:23;;;;;;;0.43;0.43;;;8.30;99.90;;;;;;4978572;28;20422;-71
2023/11/23 11:13:58;;;;;;;0.30;0.30;;;8.30;99.90;;;;;;5002894;28;20202;-69
2023/11/23 11:16:33;;;;;;;0.30;0.30;;;8.30;99.90;;;;;;4977862;28;20199;-70
2023/11/23 11:19:05;;;;;;;0.30;0.30;;;8.30;99.90;;;;;;5002069;28;20170;-68
2023/11/23 11:21:41;;;;;;;0.30;0.30;;;8.30;99.90;;;;;;4984118;28;20263;-70
2023/11/23 11:24:17;;;;;;;0.30;0.30;;;8.30;99.90;;;;;;4987780;28;20177;-71
2023/11/23 11:26:43;;;;;;;0.38;0.38;;;8.30;99.90;;;;;;4998622;28;20195;-68
2023/11/23 11:29:11;;;;;;;0.30;0.30;;;8.30;99.90;;;;;;4989867;28;20259;-68
2023/11/23 11:31:39;;;;;;;0.30;0.30;;;8.40;99.90;;;;;;4997671;28;20172;-70
2023/11/23 11:34:14;;;;;;;0.30;0.20;;;8.40;99.90;;;;;;4986596;28;20181;-71
2023/11/23 11:36:40;;;;;;;0.30;0.30;;;8.40;99.90;;;;;;4997002;28;20206;-69
2023/11/23 11:39:10;;;;;;;0.30;0.30;;;8.40;99.90;;;;;;4990941;28;20212;-70
2023/11/23 11:41:37;;;;;;;0.40;0.40;;;8.40;99.90;;;;;;5007210;28;20579;-69
2023/11/23 11:44:04;;;;;;;5.28;2.08;;;8.40;99.90;;;;;;5012623;28;20198;-71
2023/11/23 11:46:31;;;;;;;0.30;0.30;;;8.50;99.90;;;;;;5013482;28;20195;-71
2023/11/23 11:49:00;;;;;;;0.30;0.30;;;8.50;99.90;;;;;;4993620;28;20219;-67
2023/11/23 11:51:28;;;;;;;0.32;0.30;;;8.50;99.90;;;;;;4999829;28;20670;-70
2023/11/23 11:53:54;;;;;;;0.30;0.30;;;8.60;99.90;;;;;;4996924;28;20529;-68
2023/11/23 11:56:23;;;;;;;0.30;0.30;;;8.70;99.90;;;;;;4999545;28;20192;-71
2023/11/23 11:58:52;;;;;;;0.30;0.30;;;8.70;99.90;;;;;;4996953;28;20220;-70
2023/11/23 12:01:19;;;;;;;0.40;0.40;;;8.80;99.90;;;;;;4997075;28;20202;-69
2023/11/23 12:03:50;;;;;;;0.30;0.30;;;8.80;99.90;;;;;;4994380;28;20277;-71
2023/11/23 12:06:19;;;;;;;0.40;0.40;;;8.90;99.90;;;;;;4979070;28;20215;-71
2023/11/23 12:08:45;;;;;;;0.30;0.30;;;8.90;99.90;;;;;;4996772;28;20183;-69
2023/11/23 12:11:25;;;;;;;0.30;0.30;;;9.00;99.90;;;;;;4996948;28;20171;-70
2023/11/23 12:13:53;;;;;;;0.52;0.52;;;9.00;99.90;;;;;;4960291;28;20187;-70
2023/11/23 12:16:19;;;;;;;0.30;0.30;;;9.00;99.90;;;;;;5002912;28;20250;-70
2023/11/23 12:18:45;;;;;;;0.30;0.30;;;9.00;99.90;;;;;;5001277;28;20172;-67
2023/11/23 12:21:14;;;;;;;0.30;0.30;;;9.00;99.90;;;;;;5009304;28;20174;-70
2023/11/23 12:23:44;;;;;;;0.30;0.30;;;9.00;99.90;;;;;;5016293;28;20192;-67
2023/11/23 12:26:11;;;;;;;0.30;0.30;;;9.00;99.90;;;;;;5015733;28;20188;-70
2023/11/23 12:28:37;;;;;;;0.30;0.30;;;8.90;99.90;;;;;;5012249;28;20652;-69
2023/11/23 12:31:03;;;;;;;0.30;0.30;;;9.00;99.90;;;;;;5001481;28;20185;-69
2023/11/23 12:33:29;;;;;;;0.30;0.30;;;9.00;99.90;;;;;;5009905;28;20187;-68
2023/11/23 12:35:54;;;;;;;0.63;0.53;;;9.00;99.90;;;;;;5012405;28;20203;-65
2023/11/23 12:38:20;;;;;;;0.30;0.30;;;8.90;99.90;;;;;;5016125;28;20207;-69
2023/11/23 12:40:46;;;;;;;0.30;0.30;;;9.00;99.90;;;;;;4990406;28;20187;-66
2023/11/23 12:43:14;;;;;;;0.30;0.30;;;9.00;99.90;;;;;;4979577;28;20173;-70
2023/11/23 12:45:43;;;;;;;0.30;0.30;;;9.10;99.90;;;;;;4979256;28;20195;-68
2023/11/23 12:48:11;;;;;;;0.30;0.30;;;9.10;99.90;;;;;;4996006;28;20202;-72
2023/11/23 12:50:37;;;;;;;0.30;0.30;;;9.20;99.90;;;;;;4978484;28;20186;-66
2023/11/23 12:53:03;;;;;;;0.33;0.33;;;9.40;99.90;;;;;;4987463;28;20180;-70
2023/11/23 12:55:29;;;;;;;0.30;0.20;;;9.50;99.90;;;;;;4987016;28;20192;-70
2023/11/23 12:57:55;;;;;;;0.30;0.30;;;9.60;99.90;;;;;;4988935;28;20447;-71
2023/11/23 13:00:24;;;;;;;0.30;0.30;;;9.60;99.90;;;;;;4995240;28;20184;-69
2023/11/23 13:02:50;;;;;;;0.88;0.88;;;9.60;99.90;;;;;;4997404;28;20979;-70
2023/11/23 13:05:17;;;;;;;0.30;0.30;;;9.60;99.90;;;;;;4993903;28;20196;-75
2023/11/23 13:07:44;;;;;;;0.30;0.30;;;9.60;99.90;;;;;;4998041;28;20212;-72
2023/11/23 13:10:10;;;;;;;0.30;0.30;;;9.60;99.90;;;;;;4994401;28;20434;-69
2023/11/23 13:12:36;;;;;;;0.30;0.30;;;9.60;99.90;;;;;;4993758;28;20416;-70
2023/11/23 13:15:04;;;;;;;0.30;0.30;;;9.60;99.90;;;;;;4993660;28;20277;-73
2023/11/23 13:17:30;;;;;;;0.30;0.30;;;9.70;99.90;;;;;;4994253;28;20216;-71
2023/11/23 13:19:58;;;;;;;0.30;0.30;;;9.60;99.90;;;;;;4993999;28;20251;-71
2023/11/23 13:22:24;;;;;;;0.40;0.40;;;9.50;99.90;;;;;;4994283;28;20269;-70
2023/11/23 13:24:50;;;;;;;0.30;0.20;;;9.50;99.90;;;;;;4976281;28;20779;-68
2023/11/23 13:27:16;;;;;;;0.30;0.30;;;9.40;99.90;;;;;;4975231;28;20440;-70
2023/11/23 13:29:42;;;;;;;0.50;0.50;;;9.40;99.90;;;;;;4991437;28;20633;-68
2023/11/23 13:32:10;;;;;;;0.32;0.32;;;9.40;99.90;;;;;;4994069;28;20180;-68
2023/11/23 13:34:36;;;;;;;0.30;0.30;;;9.40;99.90;;;;;;4993449;28;20173;-69
2023/11/23 13:37:04;;;;;;;0.30;0.30;;;9.40;99.90;;;;;;4993837;28;20196;-68
2023/11/23 13:39:35;;;;;;;0.30;0.20;;;9.40;99.90;;;;;;4993524;28;20401;-73
2023/11/23 13:42:01;;;;;;;0.30;0.20;;;9.40;99.90;;;;;;4989206;28;20168;-66
2023/11/23 13:44:26;;;;;;;0.83;0.73;;;9.40;99.90;;;;;;4993152;28;20644;-69
2023/11/23 13:46:52;;;;;;;0.30;0.30;;;9.30;99.90;;;;;;4993508;28;20223;-72
2023/11/23 13:49:18;;;;;;;0.30;0.30;;;9.30;99.90;;;;;;4993111;28;20179;-69
2023/11/23 13:51:44;;;;;;;0.40;0.40;;;9.30;99.90;;;;;;4978894;28;20183;-71
2023/11/23 13:54:10;;;;;;;0.30;0.30;;;9.30;99.90;;;;;;4990186;28;20180;-69
2023/11/23 13:56:37;;;;;;;0.30;0.30;;;9.30;99.90;;;;;;4992585;28;20200;-72
2023/11/23 13:59:04;;;;;;;0.30;0.30;;;9.30;99.90;;;;;;4993563;28;20172;-69
2023/11/23 14:01:29;;;;;;;0.30;0.30;;;9.30;99.90;;;;;;4993372;28;20727;-70
2023/11/23 14:03:55;;;;;;;0.37;0.37;;;9.30;99.90;;;;;;4987877;28;20257;-69
2023/11/23 14:06:22;;;;;;;0.30;0.27;;;9.30;99.90;;;;;;4990960;28;20571;-72
2023/11/23 14:08:47;;;;;;;0.30;0.30;;;9.30;99.90;;;;;;4985655;28;20232;-68
2023/11/23 14:11:13;;;;;;;0.70;0.70;;;9.30;99.90;;;;;;4970843;28;20199;-69
2023/11/23 14:13:39;;;;;;;0.80;0.50;;;9.40;99.90;;;;;;4987160;28;20458;-68
2023/11/23 14:16:09;;;;;;;0.30;0.30;;;9.40;99.90;;;;;;4979256;28;20847;-69
2023/11/23 14:18:39;;;;;;;0.30;0.30;;;9.40;99.90;;;;;;4974926;28;20479;-66
2023/11/23 14:21:06;;;;;;;0.30;0.30;;;9.40;99.90;;;;;;4963165;28;20184;-66
2023/11/23 14:23:33;;;;;;;0.30;0.30;;;9.40;99.90;;;;;;4967914;28;20177;-66
2023/11/23 14:26:00;;;;;;;0.30;0.28;;;9.50;99.90;;;;;;4982952;28;20207;-68
2023/11/23 14:28:25;;;;;;;0.30;0.30;;;9.40;99.90;;;;;;4993570;28;20180;-68
2023/11/23 14:30:52;;;;;;;0.30;0.30;;;9.40;99.90;;;;;;4992936;28;20206;-70
2023/11/23 14:33:19;;;;;;;0.30;0.30;;;9.30;99.90;;;;;;4975644;28;20179;-71
2023/11/23 14:35:57;;;;;;;0.30;0.30;;;9.40;99.90;;;;;;4965509;28;20208;-71
2023/11/23 14:38:25;;;;;;;0.38;0.38;;;9.30;99.90;;;;;;4981292;28;20253;-68
2023/11/23 14:40:51;;;;;;;0.40;0.40;;;9.30;99.90;;;;;;4979432;28;20177;-68
2023/11/23 14:43:18;;;;;;;0.30;0.30;;;9.20;99.90;;;;;;4992107;28;20175;-68
2023/11/23 14:45:44;;;;;;;0.30;0.30;;;9.20;99.90;;;;;;4982177;28;20189;-70
2023/11/23 14:48:14;;;;;;;0.30;0.30;;;9.20;99.90;;;;;;4990552;28;20258;-69
2023/11/23 14:50:40;;;;;;;0.30;0.30;;;9.20;99.90;;;;;;4973065;28;20176;-68
2023/11/23 14:53:06;;;;;;;0.30;0.30;;;9.10;99.90;;;;;;4985176;28;20190;-68
2023/11/23 14:55:32;;;;;;;0.30;0.30;;;9.10;99.90;;;;;;4972007;28;20455;-67
2023/11/23 14:57:57;;;;;;;0.90;0.90;;;9.10;99.90;;;;;;4993042;28;20544;-68
2023/11/23 15:00:29;;;;;;;0.30;0.30;;;9.10;99.90;;;;;;4993918;28;20445;-67
2023/11/23 15:02:55;;;;;;;0.30;0.30;;;9.00;99.90;;;;;;4993728;28;20190;-68
2023/11/23 15:05:20;;;;;;;0.30;0.30;;;9.00;99.90;;;;;;4989012;28;20265;-68
2023/11/23 15:07:46;;;;;;;0.30;0.30;;;9.00;99.90;;;;;;4976249;28;20194;-69
2023/11/23 15:10:12;;;;;;;0.30;0.30;;;8.90;99.90;;;;;;4990307;28;20261;-67
2023/11/23 15:12:43;;;;;;;0.40;0.40;;;8.90;99.90;;;;;;4994010;28;20172;-70
2023/11/23 15:15:12;;;;;;;0.30;0.30;;;8.90;99.90;;;;;;4992893;28;20196;-69
2023/11/23 15:17:40;;;;;;;0.40;0.40;;;8.90;99.90;;;;;;4984809;28;20206;-67
2023/11/23 15:20:06;;;;;;;0.30;0.20;;;8.90;99.90;;;;;;4994550;28;20170;-67
2023/11/23 15:22:33;;;;;;;0.30;0.30;;;8.90;99.90;;;;;;4997593;28;20267;-69
2023/11/23 15:25:01;;;;;;;0.30;0.20;;;8.80;99.90;;;;;;4996044;28;20188;-69
2023/11/23 15:27:28;;;;;;;0.30;0.30;;;8.80;99.90;;;;;;4993926;28;20254;-70
2023/11/23 15:29:54;;;;;;;0.30;0.30;;;8.80;99.90;;;;;;4990888;28;20390;-69
2023/11/23 15:32:20;;;;;;;0.40;0.40;;;8.80;99.90;;;;;;4964689;28;20266;-69
2023/11/23 15:34:46;;;;;;;0.30;0.30;;;8.80;99.90;;;;;;4992940;28;20415;-69
2023/11/23 15:37:16;;;;;;;0.30;0.30;;;8.80;99.90;;;;;;4993486;28;20451;-69
2023/11/23 15:39:44;;;;;;;0.30;0.30;;;8.70;99.90;;;;;;4993060;28;20171;-67
2023/11/23 15:42:10;;;;;;;0.30;0.30;;;8.70;99.90;;;;;;4974246;28;20521;-69
2023/11/23 15:44:37;;;;;;;0.37;0.37;;;8.60;99.90;;;;;;4973778;28;20179;-69
2023/11/23 15:47:04;;;;;;;0.30;0.30;;;8.60;99.90;;;;;;4977440;28;20184;-66
2023/11/23 15:49:30;;;;;;;0.30;0.30;;;8.60;99.90;;;;;;4973868;28;20184;-69
2023/11/23 15:51:56;;;;;;;0.30;0.30;;;8.60;99.90;;;;;;4974350;28;20186;-69
2023/11/23 15:54:22;;;;;;;0.30;0.30;;;8.60;99.90;;;;;;4977417;28;20536;-69
2023/11/23 15:56:47;;;;;;;0.30;0.30;;;8.50;99.90;;;;;;4975036;28;20203;-68
2023/11/23 15:59:13;;;;;;;0.30;0.30;;;8.50;99.90;;;;;;4989987;28;20172;-66
2023/11/23 16:01:39;;;;;;;0.30;0.30;;;8.50;99.90;;;;;;4992091;28;20166;-65
2023/11/23 16:04:06;;;;;;;0.38;0.38;;;8.40;99.90;;;;;;5012503;28;20171;-70
2023/11/23 16:06:36;;;;;;;0.30;0.30;;;8.40;99.90;;;;;;4969074;28;20206;-70
2023/11/23 16:09:09;;;;;;;0.30;0.30;;;8.40;99.90;;;;;;4988040;28;20195;-68
2023/11/23 16:11:38;;;;;;;0.30;0.30;;;8.30;99.90;;;;;;4960721;28;20656;-68
2023/11/23 16:14:07;;;;;;;0.30;0.30;;;8.30;99.90;;;;;;4979752;28;20184;-69
2023/11/23 16:16:34;;;;;;;0.30;0.30;;;8.20;99.90;;;;;;4976546;28;20187;-68
2023/11/23 16:19:01;;;;;;;0.30;0.30;;;8.20;99.90;;;;;;5012643;28;20569;-70
2023/11/23 16:21:27;;;;;;;0.30;0.30;;;8.20;99.90;;;;;;4988093;28;20263;-70
2023/11/23 16:23:52;;;;;;;0.30;0.30;;;8.20;99.90;;;;;;4978790;28;20266;-68
2023/11/23 16:26:18;;;;;;;0.30;0.30;;;8.20;99.90;;;;;;4996445;28;20426;-70
2023/11/23 16:28:44;;;;;;;0.30;0.30;;;8.20;99.90;;;;;;4996544;28;20639;-68
2023/11/23 16:31:11;;;;;;;0.30;0.30;;;8.20;99.90;;;;;;4990689;28;20180;-71
2023/11/23 16:33:39;;;;;;;0.30;0.20;;;8.20;99.90;;;;;;4977448;28;20176;-71
2023/11/23 16:36:06;;;;;;;0.30;0.20;;;8.20;99.90;;;;;;4995652;28;20199;-72
2023/11/23 16:38:31;;;;;;;0.30;0.20;;;8.20;99.90;;;;;;4996250;28;20199;-68
2023/11/23 16:40:57;;;;;;;0.30;0.30;;;8.20;99.90;;;;;;4987695;28;20273;-69
2023/11/23 16:43:23;;;;;;;0.30;0.30;;;8.30;99.90;;;;;;4995142;28;20198;-70
2023/11/23 16:45:49;;;;;;;0.30;0.30;;;8.20;99.90;;;;;;4996323;28;20272;-72
2023/11/23 16:48:15;;;;;;;0.30;0.30;;;8.20;99.90;;;;;;4987145;28;20188;-70
2023/11/23 16:50:41;;;;;;;4.20;1.17;;;8.20;99.90;;;;;;4976418;28;20172;-71
2023/11/23 16:53:07;;;;;;;0.30;0.30;;;8.20;99.90;;;;;;4981996;28;20172;-71
2023/11/23 16:55:37;;;;;;;0.30;0.30;;;8.20;99.90;;;;;;4984855;28;20200;-69
2023/11/23 16:58:04;;;;;;;0.30;0.20;;;8.20;99.90;;;;;;4987121;28;20545;-70
2023/11/23 17:00:31;;;;;;;0.30;0.30;;;8.20;99.90;;;;;;4993865;28;20175;-72
2023/11/23 17:02:57;;;;;;;0.30;0.30;;;8.30;99.90;;;;;;4999672;28;20167;-71